AirNav   Air Wisconsin Up To $57,000 Bonus
 
 983 users online  

72CL Iron Mountain Pumping Plant Airport
Desert Center, California, USA

GOING TO DESERT CENTER?


FAA INFORMATION EFFECTIVE 01 DECEMBER 2022

Location

FAA Identifier: 72CL
Lat/Long: 34-08-03.0410N 115-07-08.9180W
34-08.050683N 115-07.148633W
34.1341781,-115.1191439
(estimated)
Elevation: 890 ft. / 271 m (estimated)
Variation: 13E (1985)
From city: 26 miles NE of DESERT CENTER, CA
Time zone: UTC -8 (UTC -7 during Daylight Saving Time)
Zip code: 92280

Airport Operations

Airport use: Private use. Permission required prior to landing
Activation date: 05/1976
Control tower: no
ARTCC: LOS ANGELES CENTER
FSS: RIVERSIDE FLIGHT SERVICE STATION
Attendance: UNATNDD
Wind indicator: yes
Segmented circle: no
Lights: FOR OWNER'S USE ONLY.

Nearby radio navigation aids

VOR radial/distance  VOR name  Freq  Var
PKEr260/21.8PARKER VORTAC117.9015E
TNPr073/32.4TWENTYNINE PALMS VORTAC114.2015E
BLHr317/36.9BLYTHE VORTAC117.4014E

Airport Services

Airframe service: NONE
Powerplant service: NONE
Bottled oxygen: NONE
Bulk oxygen: NONE

Runway Information

Runway 17/35

Dimensions: 3200 x 30 ft. / 975 x 9 m
Surface: asphalt
Runway edge lights: low intensity
RUNWAY 17  RUNWAY 35
Traffic pattern: leftleft
Runway end identifier lights: nono

Airport Ownership and Management from official FAA records

Ownership: Privately-owned
Owner: METRO WATER DIST SOUTHERN CA
158000 MWD RD
PARKER DAM, CA 92267
Phone (442) 262-2500
Manager: JOSEPH MIZIA
158000 MWD RD
PARKER DAM, CA 92267
Phone (442) 262-2531

Additional Remarks

FOR CD CTC LOS ANGELES ARTCC AT 661-575-2079.

Instrument Procedures

There are no published instrument procedures at 72CL.

Some nearby airports with instrument procedures:

KBLH - Blythe Airport (37 nm SE)
KTNP - Twentynine Palms Airport (41 nm W)
P20 - Avi Suquilla Airport (42 nm E)
KEED - Needles Airport (45 nm NE)
KHII - Lake Havasu City Airport (46 nm NE)
 
Loc | Ops | Rwys | IFR | FBO | Links
Com | Nav | Svcs | Stats | Notes
Area around 72CL (Iron Mountain Pumping Plant Airport)
 
Road maps at: MapQuest Bing Google
 
Aerial photo
WARNING: Photo may not be current or correct
Aerial photo of 72CL (Iron Mountain Pumping Plant Airport)
L. Dighera, 2001-2011; All Rights Reserved: LDighera@att.net
Photo taken 13-Aug-2011
looking southwest.

Do you have a better or more recent aerial photo of Iron Mountain Pumping Plant Airport that you would like to share? If so, please send us your photo.

 
Sectional chart

 
Airport distance calculator
Flying to Iron Mountain Pumping Plant Airport? Find the distance to fly.

From to 72CL

Sunrise and sunset
Times for 06-Dec-2022
 Local
(UTC-8)
 Zulu
(UTC)
Morning civil twilight06:0614:06
Sunrise06:3314:33
Sunset16:3000:30
Evening civil twilight16:5700:57

Current date and time
Zulu (UTC)  07-Dec-2022 04:28:27
Local (UTC-8)  06-Dec-2022 20:28:27
 
METAR
KBLH 
37nm SE 
070352Z AUTO 29007KT 10SM SCT120 15/M01 A2999 RMK AO2 SLP152 T01501006 TSNO
KEED 
45nm NE 
070356Z AUTO 25005KT 10SM CLR 14/01 A2999 RMK AO2 SLP145 T01390006
KHII 
46nm NE 
070415Z AUTO 32004KT 10SM CLR 15/M03 A2999 RMK AO2
TAF
KBLH 
37nm SE 
061720Z 0618/0718 29005KT P6SM FEW060 BKN250 FM061900 27008KT P6SM FEW150 SCT250 FM070500 25005KT P6SM FEW150
KEED 
45nm NE 
061741Z 0618/0718 VRB06KT P6SM BKN250 FM070200 25006KT P6SM SCT250
NOTAMs
Click for the latest NOTAMs
NOTAMs are issued by the DoD/FAA and will open in a separate window not controlled by AirNav.

 

 
 

Would you like to see your business listed on this page?

 If your business provides an interesting product or service to pilots, flight crews, aircraft, or users of the Iron Mountain Pumping Plant Airport, you should consider listing it here.  To start the listing process, click on the button below
 
Add a business
 

Other Pages about Iron Mountain Pumping Plant Airport

Update a link
 
Copyright © AirNav, LLC. All rights reserved. Privacy Policy  Contact